sensor_id;sensor_type;location;lat;lon;timestamp;temperature;humidity
12977;DHT22;6553;48.412;9.514;2023-03-01T00:01:15;19.30;50.60
12977;DHT22;6553;48.412;9.514;2023-03-01T00:03:46;19.30;50.70
12977;DHT22;6553;48.412;9.514;2023-03-01T00:06:11;19.30;50.60
12977;DHT22;6553;48.412;9.514;2023-03-01T00:08:37;19.30;50.60
12977;DHT22;6553;48.412;9.514;2023-03-01T00:13:31;19.30;50.70
12977;DHT22;6553;48.412;9.514;2023-03-01T00:15:57;19.30;50.60
12977;DHT22;6553;48.412;9.514;2023-03-01T00:18:24;19.30;50.60
12977;DHT22;6553;48.412;9.514;2023-03-01T00:20:54;19.30;50.50
12977;DHT22;6553;48.412;9.514;2023-03-01T00:23:21;19.30;50.50
12977;DHT22;6553;48.412;9.514;2023-03-01T00:25:48;19.30;50.50
12977;DHT22;6553;48.412;9.514;2023-03-01T00:28:14;19.30;50.40
12977;DHT22;6553;48.412;9.514;2023-03-01T00:30:41;19.30;50.50
12977;DHT22;6553;48.412;9.514;2023-03-01T00:33:07;19.30;50.50
12977;DHT22;6553;48.412;9.514;2023-03-01T00:35:33;19.30;50.30
12977;DHT22;6553;48.412;9.514;2023-03-01T00:38:00;19.30;50.40
12977;DHT22;6553;48.412;9.514;2023-03-01T00:40:27;19.20;50.30
12977;DHT22;6553;48.412;9.514;2023-03-01T00:42:54;19.30;50.30
12977;DHT22;6553;48.412;9.514;2023-03-01T00:45:21;19.20;50.20
12977;DHT22;6553;48.412;9.514;2023-03-01T00:47:48;19.30;50.30
12977;DHT22;6553;48.412;9.514;2023-03-01T00:50:14;19.30;50.40
12977;DHT22;6553;48.412;9.514;2023-03-01T00:52:40;19.30;50.30
12977;DHT22;6553;48.412;9.514;2023-03-01T00:55:07;19.30;50.40
12977;DHT22;6553;48.412;9.514;2023-03-01T00:57:33;19.30;50.30
12977;DHT22;6553;48.412;9.514;2023-03-01T00:59:59;19.20;50.20
12977;DHT22;6553;48.412;9.514;2023-03-01T01:02:25;19.30;50.30
12977;DHT22;6553;48.412;9.514;2023-03-01T01:04:51;19.20;50.20
12977;DHT22;6553;48.412;9.514;2023-03-01T01:07:18;19.30;50.30
12977;DHT22;6553;48.412;9.514;2023-03-01T01:09:46;19.30;50.30
12977;DHT22;6553;48.412;9.514;2023-03-01T01:12:12;19.20;50.20
12977;DHT22;6553;48.412;9.514;2023-03-01T01:14:38;19.20;50.20
12977;DHT22;6553;48.412;9.514;2023-03-01T01:17:04;19.30;50.20
12977;DHT22;6553;48.412;9.514;2023-03-01T01:19:30;19.20;50.20
12977;DHT22;6553;48.412;9.514;2023-03-01T01:21:56;19.20;50.20
12977;DHT22;6553;48.412;9.514;2023-03-01T01:24:22;19.20;50.20
12977;DHT22;6553;48.412;9.514;2023-03-01T01:26:48;19.20;50.10
12977;DHT22;6553;48.412;9.514;2023-03-01T01:29:14;19.20;50.20
12977;DHT22;6553;48.412;9.514;2023-03-01T01:31:42;19.20;50.10
12977;DHT22;6553;48.412;9.514;2023-03-01T01:34:13;19.30;50.20
12977;DHT22;6553;48.412;9.514;2023-03-01T01:36:42;19.20;50.10
12977;DHT22;6553;48.412;9.514;2023-03-01T01:39:08;19.20;50.10
12977;DHT22;6553;48.412;9.514;2023-03-01T01:41:40;19.20;50.00
12977;DHT22;6553;48.412;9.514;2023-03-01T01:44:21;19.20;50.00
12977;DHT22;6553;48.412;9.514;2023-03-01T01:47:03;19.20;50.00
12977;DHT22;6553;48.412;9.514;2023-03-01T01:49:46;19.20;50.10
12977;DHT22;6553;48.412;9.514;2023-03-01T01:52:34;19.20;50.10
12977;DHT22;6553;48.412;9.514;2023-03-01T01:55:07;19.20;50.10
12977;DHT22;6553;48.412;9.514;2023-03-01T01:57:37;19.20;50.00
12977;DHT22;6553;48.412;9.514;2023-03-01T02:00:16;19.20;50.00
12977;DHT22;6553;48.412;9.514;2023-03-01T02:02:46;19.20;50.00
12977;DHT22;6553;48.412;9.514;2023-03-01T02:08:02;19.20;50.00
12977;DHT22;6553;48.412;9.514;2023-03-01T02:10:29;19.20;50.00
12977;DHT22;6553;48.412;9.514;2023-03-01T02:13:00;19.20;50.10
12977;DHT22;6553;48.412;9.514;2023-03-01T02:15:26;19.20;50.00
12977;DHT22;6553;48.412;9.514;2023-03-01T02:17:53;19.20;50.00
12977;DHT22;6553;48.412;9.514;2023-03-01T02:20:40;19.20;50.00
12977;DHT22;6553;48.412;9.514;2023-03-01T02:23:29;19.20;50.00
12977;DHT22;6553;48.412;9.514;2023-03-01T02:26:23;19.20;50.00
12977;DHT22;6553;48.412;9.514;2023-03-01T02:28:58;19.20;50.00
12977;DHT22;6553;48.412;9.514;2023-03-01T02:31:25;19.10;49.90
12977;DHT22;6553;48.412;9.514;2023-03-01T02:34:16;19.20;50.00
12977;DHT22;6553;48.412;9.514;2023-03-01T02:37:02;19.10;50.40
12977;DHT22;6553;48.412;9.514;2023-03-01T02:39:40;19.20;49.90
12977;DHT22;6553;48.412;9.514;2023-03-01T02:42:12;19.20;49.90
12977;DHT22;6553;48.412;9.514;2023-03-01T02:44:41;19.20;49.90
12977;DHT22;6553;48.412;9.514;2023-03-01T02:47:06;19.20;49.90
12977;DHT22;6553;48.412;9.514;2023-03-01T02:49:35;19.20;49.90
12977;DHT22;6553;48.412;9.514;2023-03-01T02:55:10;19.10;49.80
12977;DHT22;6553;48.412;9.514;2023-03-01T02:57:41;19.20;49.90
12977;DHT22;6553;48.412;9.514;2023-03-01T03:00:11;19.10;49.80
12977;DHT22;6553;48.412;9.514;2023-03-01T03:02:48;19.10;49.80
12977;DHT22;6553;48.412;9.514;2023-03-01T03:05:25;19.10;49.80
12977;DHT22;6553;48.412;9.514;2023-03-01T03:07:57;19.20;49.80
12977;DHT22;6553;48.412;9.514;2023-03-01T03:10:32;19.10;49.80
12977;DHT22;6553;48.412;9.514;2023-03-01T03:13:13;19.20;49.80
12977;DHT22;6553;48.412;9.514;2023-03-01T03:19:47;19.10;49.80
12977;DHT22;6553;48.412;9.514;2023-03-01T03:22:13;19.20;49.80
12977;DHT22;6553;48.412;9.514;2023-03-01T03:24:39;19.10;49.80
12977;DHT22;6553;48.412;9.514;2023-03-01T03:27:05;19.10;49.80
12977;DHT22;6553;48.412;9.514;2023-03-01T03:29:32;19.10;49.80
12977;DHT22;6553;48.412;9.514;2023-03-01T03:31:59;19.10;49.70
12977;DHT22;6553;48.412;9.514;2023-03-01T03:34:24;19.10;49.70
12977;DHT22;6553;48.412;9.514;2023-03-01T03:36:54;19.10;49.80
12977;DHT22;6553;48.412;9.514;2023-03-01T03:39:23;19.10;49.70
12977;DHT22;6553;48.412;9.514;2023-03-01T03:41:49;19.10;49.70
12977;DHT22;6553;48.412;9.514;2023-03-01T03:44:15;19.10;49.70
12977;DHT22;6553;48.412;9.514;2023-03-01T03:46:40;19.10;49.70
12977;DHT22;6553;48.412;9.514;2023-03-01T03:49:06;19.10;49.70
12977;DHT22;6553;48.412;9.514;2023-03-01T03:51:32;19.10;49.70
12977;DHT22;6553;48.412;9.514;2023-03-01T03:53:58;19.10;49.70
12977;DHT22;6553;48.412;9.514;2023-03-01T03:56:23;19.10;49.60
12977;DHT22;6553;48.412;9.514;2023-03-01T03:58:52;19.10;49.60
12977;DHT22;6553;48.412;9.514;2023-03-01T04:01:18;19.10;49.60
12977;DHT22;6553;48.412;9.514;2023-03-01T04:03:44;19.10;49.60
12977;DHT22;6553;48.412;9.514;2023-03-01T04:06:13;19.10;49.60
12977;DHT22;6553;48.412;9.514;2023-03-01T04:08:40;19.10;49.50
12977;DHT22;6553;48.412;9.514;2023-03-01T04:11:06;19.10;49.50
12977;DHT22;6553;48.412;9.514;2023-03-01T04:13:52;19.10;49.50
12977;DHT22;6553;48.412;9.514;2023-03-01T04:16:19;19.10;49.50
12977;DHT22;6553;48.412;9.514;2023-03-01T04:18:46;19.10;49.60
12977;DHT22;6553;48.412;9.514;2023-03-01T04:21:12;19.10;49.50
12977;DHT22;6553;48.412;9.514;2023-03-01T04:23:38;19.10;49.50
12977;DHT22;6553;48.412;9.514;2023-03-01T04:26:04;19.10;49.50
12977;DHT22;6553;48.412;9.514;2023-03-01T04:28:31;19.10;49.50
12977;DHT22;6553;48.412;9.514;2023-03-01T04:31:03;19.10;49.50
12977;DHT22;6553;48.412;9.514;2023-03-01T04:33:48;19.10;50.10
12977;DHT22;6553;48.412;9.514;2023-03-01T04:36:21;19.10;49.50
12977;DHT22;6553;48.412;9.514;2023-03-01T04:38:49;19.10;49.50
12977;DHT22;6553;48.412;9.514;2023-03-01T04:41:17;19.10;49.40
12977;DHT22;6553;48.412;9.514;2023-03-01T04:43:45;19.10;49.40
12977;DHT22;6553;48.412;9.514;2023-03-01T04:46:13;19.10;49.40
12977;DHT22;6553;48.412;9.514;2023-03-01T04:48:42;19.10;49.40
12977;DHT22;6553;48.412;9.514;2023-03-01T04:51:10;19.10;49.40
12977;DHT22;6553;48.412;9.514;2023-03-01T04:53:40;19.00;49.40
12977;DHT22;6553;48.412;9.514;2023-03-01T04:56:07;19.10;49.50
12977;DHT22;6553;48.412;9.514;2023-03-01T04:58:33;19.10;49.40
12977;DHT22;6553;48.412;9.514;2023-03-01T05:00:58;19.10;49.40
12977;DHT22;6553;48.412;9.514;2023-03-01T05:03:24;19.10;49.50
12977;DHT22;6553;48.412;9.514;2023-03-01T05:05:51;19.10;49.40
12977;DHT22;6553;48.412;9.514;2023-03-01T05:08:18;19.10;49.40
12977;DHT22;6553;48.412;9.514;2023-03-01T05:10:49;19.00;49.30
12977;DHT22;6553;48.412;9.514;2023-03-01T05:13:17;19.00;49.30
12977;DHT22;6553;48.412;9.514;2023-03-01T05:15:58;19.10;49.40
12977;DHT22;6553;48.412;9.514;2023-03-01T05:18:28;19.10;49.40
12977;DHT22;6553;48.412;9.514;2023-03-01T05:21:05;19.10;49.30
12977;DHT22;6553;48.412;9.514;2023-03-01T05:23:34;19.10;49.40
12977;DHT22;6553;48.412;9.514;2023-03-01T05:26:00;19.10;49.40
12977;DHT22;6553;48.412;9.514;2023-03-01T05:28:29;19.10;49.40
12977;DHT22;6553;48.412;9.514;2023-03-01T05:30:56;19.10;49.30
12977;DHT22;6553;48.412;9.514;2023-03-01T05:33:23;19.00;49.30
12977;DHT22;6553;48.412;9.514;2023-03-01T05:35:51;19.10;49.40
12977;DHT22;6553;48.412;9.514;2023-03-01T05:38:19;19.10;49.40
12977;DHT22;6553;48.412;9.514;2023-03-01T05:40:47;19.10;49.40
12977;DHT22;6553;48.412;9.514;2023-03-01T05:43:15;19.10;49.40
12977;DHT22;6553;48.412;9.514;2023-03-01T05:45:42;19.10;49.30
12977;DHT22;6553;48.412;9.514;2023-03-01T05:48:10;19.10;49.30
12977;DHT22;6553;48.412;9.514;2023-03-01T05:50:42;19.10;49.30
12977;DHT22;6553;48.412;9.514;2023-03-01T05:53:15;19.10;49.30
12977;DHT22;6553;48.412;9.514;2023-03-01T05:55:43;19.10;49.20
12977;DHT22;6553;48.412;9.514;2023-03-01T05:58:18;19.10;49.20
12977;DHT22;6553;48.412;9.514;2023-03-01T06:00:47;19.10;49.20
12977;DHT22;6553;48.412;9.514;2023-03-01T06:03:16;19.10;49.20
12977;DHT22;6553;48.412;9.514;2023-03-01T06:05:43;19.10;49.20
12977;DHT22;6553;48.412;9.514;2023-03-01T06:08:10;19.10;49.20
12977;DHT22;6553;48.412;9.514;2023-03-01T06:10:37;19.10;49.20
12977;DHT22;6553;48.412;9.514;2023-03-01T06:13:02;19.10;49.20
12977;DHT22;6553;48.412;9.514;2023-03-01T06:15:28;19.10;49.20
12977;DHT22;6553;48.412;9.514;2023-03-01T06:17:55;19.10;49.20
12977;DHT22;6553;48.412;9.514;2023-03-01T06:20:26;19.10;49.10
12977;DHT22;6553;48.412;9.514;2023-03-01T06:22:53;19.10;49.20
12977;DHT22;6553;48.412;9.514;2023-03-01T06:25:23;19.10;49.20
12977;DHT22;6553;48.412;9.514;2023-03-01T06:27:50;19.10;49.10
12977;DHT22;6553;48.412;9.514;2023-03-01T06:30:19;19.10;49.10
12977;DHT22;6553;48.412;9.514;2023-03-01T06:32:46;19.10;49.10
12977;DHT22;6553;48.412;9.514;2023-03-01T06:35:13;19.10;49.10
12977;DHT22;6553;48.412;9.514;2023-03-01T06:37:43;19.10;49.10
12977;DHT22;6553;48.412;9.514;2023-03-01T06:40:10;19.10;49.00
12977;DHT22;6553;48.412;9.514;2023-03-01T06:42:38;19.10;49.00
12977;DHT22;6553;48.412;9.514;2023-03-01T06:45:06;19.10;49.00
12977;DHT22;6553;48.412;9.514;2023-03-01T06:47:34;19.10;49.00
12977;DHT22;6553;48.412;9.514;2023-03-01T06:50:00;19.10;48.90
12977;DHT22;6553;48.412;9.514;2023-03-01T06:52:26;19.10;49.00
12977;DHT22;6553;48.412;9.514;2023-03-01T06:54:52;19.10;48.90
12977;DHT22;6553;48.412;9.514;2023-03-01T06:57:18;19.10;48.90
12977;DHT22;6553;48.412;9.514;2023-03-01T06:59:44;19.10;49.50
12977;DHT22;6553;48.412;9.514;2023-03-01T07:02:11;19.10;48.80
12977;DHT22;6553;48.412;9.514;2023-03-01T07:04:38;19.10;48.80
12977;DHT22;6553;48.412;9.514;2023-03-01T07:07:04;19.10;48.80
12977;DHT22;6553;48.412;9.514;2023-03-01T07:09:30;19.10;48.80
12977;DHT22;6553;48.412;9.514;2023-03-01T07:11:56;19.10;48.80
12977;DHT22;6553;48.412;9.514;2023-03-01T07:14:22;19.10;48.80
12977;DHT22;6553;48.412;9.514;2023-03-01T07:16:52;19.10;48.80
12977;DHT22;6553;48.412;9.514;2023-03-01T07:19:20;19.10;48.70
12977;DHT22;6553;48.412;9.514;2023-03-01T07:21:46;19.20;48.80
12977;DHT22;6553;48.412;9.514;2023-03-01T07:24:12;19.20;48.70
12977;DHT22;6553;48.412;9.514;2023-03-01T07:26:38;19.10;48.70
12977;DHT22;6553;48.412;9.514;2023-03-01T07:29:05;19.10;48.70
12977;DHT22;6553;48.412;9.514;2023-03-01T07:31:33;19.10;49.30
12977;DHT22;6553;48.412;9.514;2023-03-01T07:34:00;19.20;48.70
12977;DHT22;6553;48.412;9.514;2023-03-01T07:36:26;19.20;48.70
12977;DHT22;6553;48.412;9.514;2023-03-01T07:38:51;19.10;48.70
12977;DHT22;6553;48.412;9.514;2023-03-01T07:41:17;19.20;48.70
12977;DHT22;6553;48.412;9.514;2023-03-01T07:43:43;19.20;48.70
12977;DHT22;6553;48.412;9.514;2023-03-01T07:46:10;19.20;48.70
12977;DHT22;6553;48.412;9.514;2023-03-01T07:48:36;19.20;48.70
12977;DHT22;6553;48.412;9.514;2023-03-01T07:51:03;19.20;48.60
12977;DHT22;6553;48.412;9.514;2023-03-01T07:53:31;19.20;49.20
12977;DHT22;6553;48.412;9.514;2023-03-01T07:56:06;19.20;48.70
12977;DHT22;6553;48.412;9.514;2023-03-01T07:58:35;19.20;48.60
12977;DHT22;6553;48.412;9.514;2023-03-01T08:01:07;19.20;48.60
12977;DHT22;6553;48.412;9.514;2023-03-01T08:03:36;19.20;48.70
12977;DHT22;6553;48.412;9.514;2023-03-01T08:06:04;19.20;48.60
12977;DHT22;6553;48.412;9.514;2023-03-01T08:08:32;19.20;48.60
12977;DHT22;6553;48.412;9.514;2023-03-01T08:10:59;19.20;48.50
12977;DHT22;6553;48.412;9.514;2023-03-01T08:13:26;19.20;48.60
12977;DHT22;6553;48.412;9.514;2023-03-01T08:15:52;19.20;48.50
12977;DHT22;6553;48.412;9.514;2023-03-01T08:18:20;19.20;48.50
12977;DHT22;6553;48.412;9.514;2023-03-01T08:20:46;19.20;48.50
12977;DHT22;6553;48.412;9.514;2023-03-01T08:23:13;19.20;48.40
12977;DHT22;6553;48.412;9.514;2023-03-01T08:25:39;19.20;48.40
12977;DHT22;6553;48.412;9.514;2023-03-01T08:28:05;19.20;48.40
12977;DHT22;6553;48.412;9.514;2023-03-01T08:30:31;19.20;48.40
12977;DHT22;6553;48.412;9.514;2023-03-01T08:32:57;19.20;48.40
12977;DHT22;6553;48.412;9.514;2023-03-01T08:35:23;19.30;48.50
12977;DHT22;6553;48.412;9.514;2023-03-01T08:37:49;19.30;48.40
12977;DHT22;6553;48.412;9.514;2023-03-01T08:40:15;19.20;48.30
12977;DHT22;6553;48.412;9.514;2023-03-01T08:42:41;19.30;48.40
12977;DHT22;6553;48.412;9.514;2023-03-01T08:45:11;19.30;48.50
12977;DHT22;6553;48.412;9.514;2023-03-01T08:47:39;19.20;48.30
12977;DHT22;6553;48.412;9.514;2023-03-01T08:50:05;19.30;48.40
12977;DHT22;6553;48.412;9.514;2023-03-01T08:52:32;19.30;48.50
12977;DHT22;6553;48.412;9.514;2023-03-01T08:54:58;19.30;48.50
12977;DHT22;6553;48.412;9.514;2023-03-01T08:57:26;19.30;48.40
12977;DHT22;6553;48.412;9.514;2023-03-01T08:59:52;19.30;48.50
12977;DHT22;6553;48.412;9.514;2023-03-01T09:02:21;19.30;48.40
12977;DHT22;6553;48.412;9.514;2023-03-01T09:04:47;19.30;48.40
12977;DHT22;6553;48.412;9.514;2023-03-01T09:07:13;19.30;48.40
12977;DHT22;6553;48.412;9.514;2023-03-01T09:09:39;19.30;48.40
12977;DHT22;6553;48.412;9.514;2023-03-01T09:12:05;19.30;48.40
12977;DHT22;6553;48.412;9.514;2023-03-01T09:14:32;19.30;48.30
12977;DHT22;6553;48.412;9.514;2023-03-01T09:16:58;19.30;48.20
12977;DHT22;6553;48.412;9.514;2023-03-01T09:19:28;19.30;48.20
12977;DHT22;6553;48.412;9.514;2023-03-01T09:21:54;19.30;48.20
12977;DHT22;6553;48.412;9.514;2023-03-01T09:24:23;19.40;48.20
12977;DHT22;6553;48.412;9.514;2023-03-01T09:26:51;19.40;48.30
12977;DHT22;6553;48.412;9.514;2023-03-01T09:29:18;19.30;48.10
12977;DHT22;6553;48.412;9.514;2023-03-01T09:31:44;19.40;48.20
12977;DHT22;6553;48.412;9.514;2023-03-01T09:34:10;19.30;48.10
12977;DHT22;6553;48.412;9.514;2023-03-01T09:36:36;19.30;48.10
12977;DHT22;6553;48.412;9.514;2023-03-01T09:39:03;19.40;48.20
12977;DHT22;6553;48.412;9.514;2023-03-01T09:41:48;19.40;48.20
12977;DHT22;6553;48.412;9.514;2023-03-01T09:44:26;19.40;48.10
12977;DHT22;6553;48.412;9.514;2023-03-01T09:46:57;19.30;48.00
12977;DHT22;6553;48.412;9.514;2023-03-01T09:50:12;19.40;48.10
12977;DHT22;6553;48.412;9.514;2023-03-01T09:53:06;19.40;48.10
12977;DHT22;6553;48.412;9.514;2023-03-01T09:59:30;19.40;48.10
12977;DHT22;6553;48.412;9.514;2023-03-01T10:01:46;19.30;48.00
12977;DHT22;6553;48.412;9.514;2023-03-01T10:04:42;19.40;48.00
12977;DHT22;6553;48.412;9.514;2023-03-01T10:07:32;19.40;48.00
12977;DHT22;6553;48.412;9.514;2023-03-01T10:10:08;19.40;48.00
12977;DHT22;6553;48.412;9.514;2023-03-01T10:12:47;19.40;48.00
12977;DHT22;6553;48.412;9.514;2023-03-01T10:15:25;19.40;48.00
12977;DHT22;6553;48.412;9.514;2023-03-01T10:18:04;19.40;47.90
12977;DHT22;6553;48.412;9.514;2023-03-01T10:23:19;19.40;47.80
12977;DHT22;6553;48.412;9.514;2023-03-01T10:28:44;19.40;47.80
12977;DHT22;6553;48.412;9.514;2023-03-01T10:31:23;19.40;47.70
12977;DHT22;6553;48.412;9.514;2023-03-01T10:33:54;19.40;47.70
12977;DHT22;6553;48.412;9.514;2023-03-01T10:36:23;19.40;47.80
12977;DHT22;6553;48.412;9.514;2023-03-01T10:38:55;19.40;47.70
12977;DHT22;6553;48.412;9.514;2023-03-01T10:41:25;19.50;47.90
12977;DHT22;6553;48.412;9.514;2023-03-01T10:43:57;19.40;47.80
12977;DHT22;6553;48.412;9.514;2023-03-01T10:46:36;19.40;47.70
12977;DHT22;6553;48.412;9.514;2023-03-01T10:49:23;19.40;47.70
12977;DHT22;6553;48.412;9.514;2023-03-01T10:51:52;19.40;47.70
12977;DHT22;6553;48.412;9.514;2023-03-01T10:54:27;19.40;47.80
12977;DHT22;6553;48.412;9.514;2023-03-01T10:56:56;19.50;47.80
12977;DHT22;6553;48.412;9.514;2023-03-01T11:04:28;19.40;48.20
12977;DHT22;6553;48.412;9.514;2023-03-01T11:07:02;19.40;47.60
12977;DHT22;6553;48.412;9.514;2023-03-01T11:09:32;19.40;47.60
12977;DHT22;6553;48.412;9.514;2023-03-01T11:12:05;19.40;47.60
12977;DHT22;6553;48.412;9.514;2023-03-01T11:14:39;19.50;47.70
12977;DHT22;6553;48.412;9.514;2023-03-01T11:20:05;19.40;47.70
12977;DHT22;6553;48.412;9.514;2023-03-01T11:22:51;19.40;47.60
12977;DHT22;6553;48.412;9.514;2023-03-01T11:25:32;19.50;47.70
12977;DHT22;6553;48.412;9.514;2023-03-01T11:28:04;19.50;47.70
12977;DHT22;6553;48.412;9.514;2023-03-01T11:30:51;19.50;47.70
12977;DHT22;6553;48.412;9.514;2023-03-01T11:33:54;19.50;47.70
12977;DHT22;6553;48.412;9.514;2023-03-01T11:36:44;19.50;47.70
12977;DHT22;6553;48.412;9.514;2023-03-01T11:39:25;19.50;47.70
12977;DHT22;6553;48.412;9.514;2023-03-01T11:42:05;19.50;47.70
12977;DHT22;6553;48.412;9.514;2023-03-01T11:44:39;19.50;47.60
12977;DHT22;6553;48.412;9.514;2023-03-01T11:47:47;19.50;47.70
12977;DHT22;6553;48.412;9.514;2023-03-01T11:50:19;19.50;47.70
12977;DHT22;6553;48.412;9.514;2023-03-01T12:04:29;19.50;47.70
12977;DHT22;6553;48.412;9.514;2023-03-01T12:07:13;19.50;47.70
12977;DHT22;6553;48.412;9.514;2023-03-01T12:15:33;19.50;47.70
12977;DHT22;6553;48.412;9.514;2023-03-01T12:21:05;19.50;47.70
12977;DHT22;6553;48.412;9.514;2023-03-01T12:24:10;19.50;47.70
12977;DHT22;6553;48.412;9.514;2023-03-01T12:30:23;19.50;47.70
12977;DHT22;6553;48.412;9.514;2023-03-01T12:33:17;19.50;47.70
12977;DHT22;6553;48.412;9.514;2023-03-01T12:36:21;19.50;47.70
12977;DHT22;6553;48.412;9.514;2023-03-01T12:39:10;19.50;47.70
12977;DHT22;6553;48.412;9.514;2023-03-01T12:48:30;19.50;47.70
12977;DHT22;6553;48.412;9.514;2023-03-01T12:51:11;19.50;47.70
12977;DHT22;6553;48.412;9.514;2023-03-01T12:53:47;19.60;47.80
12977;DHT22;6553;48.412;9.514;2023-03-01T12:56:24;19.60;47.80
12977;DHT22;6553;48.412;9.514;2023-03-01T13:08:32;19.60;47.80
12977;DHT22;6553;48.412;9.514;2023-03-01T13:11:06;19.60;47.80
12977;DHT22;6553;48.412;9.514;2023-03-01T13:13:41;19.60;47.80
12977;DHT22;6553;48.412;9.514;2023-03-01T13:19:13;19.60;47.90
12977;DHT22;6553;48.412;9.514;2023-03-01T13:21:42;19.60;47.90
12977;DHT22;6553;48.412;9.514;2023-03-01T13:24:33;19.60;47.80
12977;DHT22;6553;48.412;9.514;2023-03-01T13:32:21;19.60;47.80
12977;DHT22;6553;48.412;9.514;2023-03-01T13:37:40;19.60;47.90
12977;DHT22;6553;48.412;9.514;2023-03-01T13:42:56;19.60;47.90
12977;DHT22;6553;48.412;9.514;2023-03-01T13:45:40;19.60;47.90
12977;DHT22;6553;48.412;9.514;2023-03-01T13:50:58;19.60;47.90
12977;DHT22;6553;48.412;9.514;2023-03-01T13:53:31;19.60;47.90
12977;DHT22;6553;48.412;9.514;2023-03-01T13:56:12;19.60;48.00
12977;DHT22;6553;48.412;9.514;2023-03-01T13:58:53;19.60;47.90
12977;DHT22;6553;48.412;9.514;2023-03-01T14:01:25;19.60;48.00
12977;DHT22;6553;48.412;9.514;2023-03-01T14:03:57;19.60;47.90
12977;DHT22;6553;48.412;9.514;2023-03-01T14:06:28;19.60;47.90
12977;DHT22;6553;48.412;9.514;2023-03-01T14:12:12;19.60;47.90
12977;DHT22;6553;48.412;9.514;2023-03-01T14:20:44;19.60;47.90
12977;DHT22;6553;48.412;9.514;2023-03-01T14:23:22;19.60;47.90
12977;DHT22;6553;48.412;9.514;2023-03-01T14:25:55;19.70;48.10
12977;DHT22;6553;48.412;9.514;2023-03-01T14:28:28;19.60;48.50
12977;DHT22;6553;48.412;9.514;2023-03-01T14:30:58;19.60;47.90
12977;DHT22;6553;48.412;9.514;2023-03-01T14:33:31;19.60;47.80
12977;DHT22;6553;48.412;9.514;2023-03-01T14:36:09;19.60;47.90
12977;DHT22;6553;48.412;9.514;2023-03-01T14:38:37;19.60;47.90
12977;DHT22;6553;48.412;9.514;2023-03-01T14:46:28;19.70;48.00
12977;DHT22;6553;48.412;9.514;2023-03-01T14:52:02;19.70;48.10
12977;DHT22;6553;48.412;9.514;2023-03-01T14:54:42;19.70;48.00
12977;DHT22;6553;48.412;9.514;2023-03-01T14:57:16;19.70;48.00
12977;DHT22;6553;48.412;9.514;2023-03-01T14:59:51;19.70;48.00
12977;DHT22;6553;48.412;9.514;2023-03-01T15:02:23;19.70;48.10
12977;DHT22;6553;48.412;9.514;2023-03-01T15:04:54;19.70;48.00
12977;DHT22;6553;48.412;9.514;2023-03-01T15:07:34;19.70;48.00
12977;DHT22;6553;48.412;9.514;2023-03-01T15:10:06;19.70;48.10
12977;DHT22;6553;48.412;9.514;2023-03-01T15:12:40;19.70;48.10
12977;DHT22;6553;48.412;9.514;2023-03-01T15:17:56;19.70;48.10
12977;DHT22;6553;48.412;9.514;2023-03-01T15:20:26;19.70;48.10
12977;DHT22;6553;48.412;9.514;2023-03-01T15:22:55;19.80;48.70
12977;DHT22;6553;48.412;9.514;2023-03-01T15:25:27;19.80;48.90
12977;DHT22;6553;48.412;9.514;2023-03-01T15:27:56;19.80;48.90
12977;DHT22;6553;48.412;9.514;2023-03-01T15:30:32;19.80;49.20
12977;DHT22;6553;48.412;9.514;2023-03-01T15:35:57;19.80;49.60
12977;DHT22;6553;48.412;9.514;2023-03-01T15:41:02;19.80;49.70
12977;DHT22;6553;48.412;9.514;2023-03-01T15:43:45;19.80;49.70
12977;DHT22;6553;48.412;9.514;2023-03-01T15:49:24;19.80;49.60
12977;DHT22;6553;48.412;9.514;2023-03-01T15:52:17;19.80;49.60
12977;DHT22;6553;48.412;9.514;2023-03-01T15:54:56;19.80;49.60
12977;DHT22;6553;48.412;9.514;2023-03-01T15:57:23;19.80;49.50
12977;DHT22;6553;48.412;9.514;2023-03-01T15:59:49;19.80;49.50
12977;DHT22;6553;48.412;9.514;2023-03-01T16:02:14;19.80;49.40
12977;DHT22;6553;48.412;9.514;2023-03-01T16:04:41;19.70;49.30
12977;DHT22;6553;48.412;9.514;2023-03-01T16:07:08;19.70;49.30
12977;DHT22;6553;48.412;9.514;2023-03-01T16:09:35;19.70;49.20
12977;DHT22;6553;48.412;9.514;2023-03-01T16:12:01;19.70;49.20
12977;DHT22;6553;48.412;9.514;2023-03-01T16:14:27;19.70;49.30
12977;DHT22;6553;48.412;9.514;2023-03-01T16:16:53;19.70;49.20
12977;DHT22;6553;48.412;9.514;2023-03-01T16:19:19;19.70;49.20
12977;DHT22;6553;48.412;9.514;2023-03-01T16:21:45;19.70;49.20
12977;DHT22;6553;48.412;9.514;2023-03-01T16:24:12;19.70;49.20
12977;DHT22;6553;48.412;9.514;2023-03-01T16:26:39;19.70;49.20
12977;DHT22;6553;48.412;9.514;2023-03-01T16:29:05;19.70;49.20
12977;DHT22;6553;48.412;9.514;2023-03-01T16:31:31;19.70;49.20
12977;DHT22;6553;48.412;9.514;2023-03-01T16:33:58;19.70;49.20
12977;DHT22;6553;48.412;9.514;2023-03-01T16:36:26;19.70;49.20
12977;DHT22;6553;48.412;9.514;2023-03-01T16:38:58;19.70;49.10
12977;DHT22;6553;48.412;9.514;2023-03-01T16:41:27;19.70;49.00
12977;DHT22;6553;48.412;9.514;2023-03-01T16:43:53;19.70;49.00
12977;DHT22;6553;48.412;9.514;2023-03-01T16:46:24;19.70;49.10
12977;DHT22;6553;48.412;9.514;2023-03-01T16:48:54;19.70;49.00
12977;DHT22;6553;48.412;9.514;2023-03-01T16:51:22;19.70;49.10
12977;DHT22;6553;48.412;9.514;2023-03-01T16:53:49;19.70;49.00
12977;DHT22;6553;48.412;9.514;2023-03-01T16:56:16;19.60;48.90
12977;DHT22;6553;48.412;9.514;2023-03-01T16:58:43;19.60;49.00
12977;DHT22;6553;48.412;9.514;2023-03-01T17:01:10;19.60;48.90
12977;DHT22;6553;48.412;9.514;2023-03-01T17:03:41;19.70;49.10
12977;DHT22;6553;48.412;9.514;2023-03-01T17:06:11;19.60;48.90
12977;DHT22;6553;48.412;9.514;2023-03-01T17:08:40;19.60;48.90
12977;DHT22;6553;48.412;9.514;2023-03-01T17:11:11;19.60;49.00
12977;DHT22;6553;48.412;9.514;2023-03-01T17:13:40;19.60;48.90
12977;DHT22;6553;48.412;9.514;2023-03-01T17:16:09;19.60;48.90
12977;DHT22;6553;48.412;9.514;2023-03-01T17:18:37;19.60;48.90
12977;DHT22;6553;48.412;9.514;2023-03-01T17:21:04;19.60;48.90
12977;DHT22;6553;48.412;9.514;2023-03-01T17:23:31;19.60;48.90
12977;DHT22;6553;48.412;9.514;2023-03-01T17:25:58;19.60;48.90
12977;DHT22;6553;48.412;9.514;2023-03-01T17:28:29;19.60;48.90
12977;DHT22;6553;48.412;9.514;2023-03-01T17:30:58;19.60;48.90
12977;DHT22;6553;48.412;9.514;2023-03-01T17:33:26;19.60;48.90
12977;DHT22;6553;48.412;9.514;2023-03-01T17:35:52;19.60;49.50
12977;DHT22;6553;48.412;9.514;2023-03-01T17:38:18;19.60;48.90
12977;DHT22;6553;48.412;9.514;2023-03-01T17:40:45;19.60;48.90
12977;DHT22;6553;48.412;9.514;2023-03-01T17:43:12;19.60;48.80
12977;DHT22;6553;48.412;9.514;2023-03-01T17:45:38;19.60;48.90
12977;DHT22;6553;48.412;9.514;2023-03-01T17:48:05;19.60;48.80
12977;DHT22;6553;48.412;9.514;2023-03-01T17:50:32;19.60;48.90
12977;DHT22;6553;48.412;9.514;2023-03-01T17:53:01;19.60;48.90
12977;DHT22;6553;48.412;9.514;2023-03-01T17:55:31;19.60;48.80
12977;DHT22;6553;48.412;9.514;2023-03-01T17:57:57;19.60;49.00
12977;DHT22;6553;48.412;9.514;2023-03-01T18:00:23;19.60;49.00
12977;DHT22;6553;48.412;9.514;2023-03-01T18:02:49;19.60;48.90